sensor_id;sensor_type;location;lat;lon;timestamp;pressure;altitude;pressure_sealevel;temperature;humidity
45285;BME280;31026;43.780;25.948;2022-12-10T00:01:22;100156.25;;;17.24;75.10
45285;BME280;31026;43.780;25.948;2022-12-10T00:03:51;100152.88;;;17.22;74.73
45285;BME280;31026;43.780;25.948;2022-12-10T00:06:20;100155.09;;;17.17;75.02
45285;BME280;31026;43.780;25.948;2022-12-10T00:08:49;100147.25;;;17.15;75.10
45285;BME280;31026;43.780;25.948;2022-12-10T00:11:19;100145.00;;;17.20;75.39
45285;BME280;31026;43.780;25.948;2022-12-10T00:13:50;100150.91;;;17.14;74.92
45285;BME280;31026;43.780;25.948;2022-12-10T00:16:19;100161.31;;;17.07;74.99
45285;BME280;31026;43.780;25.948;2022-12-10T00:18:48;100155.66;;;17.01;74.97
45285;BME280;31026;43.780;25.948;2022-12-10T00:21:17;100161.28;;;16.98;75.36
45285;BME280;31026;43.780;25.948;2022-12-10T00:23:46;100164.91;;;16.97;75.88
45285;BME280;31026;43.780;25.948;2022-12-10T00:26:15;100155.28;;;17.74;73.27
45285;BME280;31026;43.780;25.948;2022-12-10T00:28:44;100168.66;;;18.50;70.67
45285;BME280;31026;43.780;25.948;2022-12-10T00:31:16;100159.97;;;19.03;68.99
45285;BME280;31026;43.780;25.948;2022-12-10T00:33:45;100156.53;;;19.11;68.98
45285;BME280;31026;43.780;25.948;2022-12-10T00:36:15;100155.78;;;19.19;68.55
45285;BME280;31026;43.780;25.948;2022-12-10T00:38:44;100173.72;;;19.36;68.14
45285;BME280;31026;43.780;25.948;2022-12-10T00:41:13;100149.34;;;19.47;67.78
45285;BME280;31026;43.780;25.948;2022-12-10T00:43:41;100128.09;;;18.82;69.72
45285;BME280;31026;43.780;25.948;2022-12-10T00:46:10;100135.38;;;18.25;71.45
45285;BME280;31026;43.780;25.948;2022-12-10T00:48:41;100125.59;;;17.86;72.53
45285;BME280;31026;43.780;25.948;2022-12-10T00:51:10;100144.72;;;17.62;73.40
45285;BME280;31026;43.780;25.948;2022-12-10T00:53:40;100154.72;;;17.50;73.69
45285;BME280;31026;43.780;25.948;2022-12-10T00:56:09;100148.53;;;17.40;73.09
45285;BME280;31026;43.780;25.948;2022-12-10T00:58:38;100124.34;;;17.32;73.92
45285;BME280;31026;43.780;25.948;2022-12-10T01:01:07;100122.22;;;17.26;73.46
45285;BME280;31026;43.780;25.948;2022-12-10T01:03:35;100158.09;;;17.23;73.05
45285;BME280;31026;43.780;25.948;2022-12-10T01:06:13;100140.06;;;17.16;74.33
45285;BME280;31026;43.780;25.948;2022-12-10T01:08:42;100131.63;;;17.10;74.06
45285;BME280;31026;43.780;25.948;2022-12-10T01:11:13;100134.72;;;17.06;74.11
45285;BME280;31026;43.780;25.948;2022-12-10T01:13:41;100137.66;;;17.03;74.22
45285;BME280;31026;43.780;25.948;2022-12-10T01:16:11;100139.63;;;17.01;73.68
45285;BME280;31026;43.780;25.948;2022-12-10T01:18:40;100139.50;;;17.02;73.87
45285;BME280;31026;43.780;25.948;2022-12-10T01:21:09;100140.03;;;16.96;74.04
45285;BME280;31026;43.780;25.948;2022-12-10T01:23:41;100134.81;;;16.95;73.71
45285;BME280;31026;43.780;25.948;2022-12-10T01:26:11;100135.25;;;16.90;73.87
45285;BME280;31026;43.780;25.948;2022-12-10T01:28:40;100129.19;;;16.88;74.43
45285;BME280;31026;43.780;25.948;2022-12-10T01:31:09;100124.63;;;17.19;73.40
45285;BME280;31026;43.780;25.948;2022-12-10T01:33:38;100109.06;;;18.11;70.60
45285;BME280;31026;43.780;25.948;2022-12-10T01:36:07;100132.38;;;18.65;69.05
45285;BME280;31026;43.780;25.948;2022-12-10T01:38:36;100120.66;;;19.22;67.36
45285;BME280;31026;43.780;25.948;2022-12-10T01:41:08;100108.69;;;19.52;66.34
45285;BME280;31026;43.780;25.948;2022-12-10T01:46:19;100112.66;;;19.48;66.77
45285;BME280;31026;43.780;25.948;2022-12-10T01:48:48;100102.53;;;19.60;66.25
45285;BME280;31026;43.780;25.948;2022-12-10T01:51:17;100088.06;;;19.53;66.16
45285;BME280;31026;43.780;25.948;2022-12-10T01:53:46;100086.75;;;18.85;68.60
45285;BME280;31026;43.780;25.948;2022-12-10T01:56:18;100092.69;;;18.23;70.31
45285;BME280;31026;43.780;25.948;2022-12-10T01:58:47;100091.81;;;17.85;71.83
45285;BME280;31026;43.780;25.948;2022-12-10T02:01:19;100097.47;;;17.63;72.13
45285;BME280;31026;43.780;25.948;2022-12-10T02:03:56;100075.22;;;17.53;72.38
45285;BME280;31026;43.780;25.948;2022-12-10T02:06:31;100089.59;;;17.42;72.29
45285;BME280;31026;43.780;25.948;2022-12-10T02:09:04;100085.94;;;17.33;72.82
45285;BME280;31026;43.780;25.948;2022-12-10T02:11:40;100092.69;;;17.27;72.66
45285;BME280;31026;43.780;25.948;2022-12-10T02:14:10;100106.47;;;17.23;73.08
45285;BME280;31026;43.780;25.948;2022-12-10T02:16:42;100102.53;;;17.17;72.82
45285;BME280;31026;43.780;25.948;2022-12-10T02:19:13;100119.66;;;17.15;72.69
45285;BME280;31026;43.780;25.948;2022-12-10T02:21:44;100111.13;;;17.11;73.14
45285;BME280;31026;43.780;25.948;2022-12-10T02:24:15;100125.31;;;17.12;73.38
45285;BME280;31026;43.780;25.948;2022-12-10T02:26:51;100123.31;;;17.04;73.08
45285;BME280;31026;43.780;25.948;2022-12-10T02:29:23;100112.91;;;17.01;72.84
45285;BME280;31026;43.780;25.948;2022-12-10T02:31:53;100110.66;;;16.96;72.77
45285;BME280;31026;43.780;25.948;2022-12-10T02:34:23;100125.97;;;16.94;72.85
45285;BME280;31026;43.780;25.948;2022-12-10T02:36:53;100128.66;;;16.94;73.06
45285;BME280;31026;43.780;25.948;2022-12-10T02:39:23;100139.75;;;16.89;72.57
45285;BME280;31026;43.780;25.948;2022-12-10T02:41:54;100152.25;;;16.89;72.81
45285;BME280;31026;43.780;25.948;2022-12-10T02:44:25;100145.94;;;16.90;73.67
45285;BME280;31026;43.780;25.948;2022-12-10T02:46:55;100138.41;;;17.93;70.31
45285;BME280;31026;43.780;25.948;2022-12-10T02:49:25;100129.09;;;18.72;67.55
45285;BME280;31026;43.780;25.948;2022-12-10T02:51:54;100145.19;;;19.17;66.32
45285;BME280;31026;43.780;25.948;2022-12-10T02:57:08;100140.16;;;19.50;65.37
45285;BME280;31026;43.780;25.948;2022-12-10T02:59:47;100132.69;;;19.72;64.91
45285;BME280;31026;43.780;25.948;2022-12-10T03:02:20;100135.16;;;19.55;65.40
45285;BME280;31026;43.780;25.948;2022-12-10T03:04:52;100137.81;;;18.74;67.67
45285;BME280;31026;43.780;25.948;2022-12-10T03:07:22;100162.97;;;18.16;69.69
45285;BME280;31026;43.780;25.948;2022-12-10T03:09:54;100141.47;;;17.78;70.92
45285;BME280;31026;43.780;25.948;2022-12-10T03:12:25;100138.28;;;17.55;70.82
45285;BME280;31026;43.780;25.948;2022-12-10T03:14:59;100149.22;;;17.42;71.72
45285;BME280;31026;43.780;25.948;2022-12-10T03:17:29;100127.00;;;17.32;71.76
45285;BME280;31026;43.780;25.948;2022-12-10T03:19:59;100134.31;;;17.30;71.85
45285;BME280;31026;43.780;25.948;2022-12-10T03:22:28;100136.59;;;17.25;72.13
45285;BME280;31026;43.780;25.948;2022-12-10T03:24:57;100124.47;;;17.21;72.01
45285;BME280;31026;43.780;25.948;2022-12-10T03:27:26;100118.00;;;17.14;72.09
45285;BME280;31026;43.780;25.948;2022-12-10T03:29:59;100126.28;;;17.10;72.01
45285;BME280;31026;43.780;25.948;2022-12-10T03:32:28;100116.03;;;17.06;72.13
45285;BME280;31026;43.780;25.948;2022-12-10T03:34:57;100113.63;;;17.03;71.94
45285;BME280;31026;43.780;25.948;2022-12-10T03:37:27;100106.47;;;17.03;72.29
45285;BME280;31026;43.780;25.948;2022-12-10T03:39:55;100099.13;;;16.96;72.06
45285;BME280;31026;43.780;25.948;2022-12-10T03:42:24;100099.28;;;16.94;72.24
45285;BME280;31026;43.780;25.948;2022-12-10T03:44:53;100105.63;;;16.93;72.28
45285;BME280;31026;43.780;25.948;2022-12-10T03:47:23;100095.19;;;16.90;72.31
45285;BME280;31026;43.780;25.948;2022-12-10T03:49:52;100098.00;;;16.88;72.20
45285;BME280;31026;43.780;25.948;2022-12-10T03:52:20;100101.78;;;16.86;73.10
45285;BME280;31026;43.780;25.948;2022-12-10T03:54:49;100089.03;;;16.99;72.55
45285;BME280;31026;43.780;25.948;2022-12-10T03:57:17;100092.13;;;18.20;68.62
45285;BME280;31026;43.780;25.948;2022-12-10T03:59:46;100096.09;;;18.81;66.88
45285;BME280;31026;43.780;25.948;2022-12-10T04:02:14;100104.44;;;19.14;65.73
45285;BME280;31026;43.780;25.948;2022-12-10T04:04:45;100095.44;;;19.15;66.12
45285;BME280;31026;43.780;25.948;2022-12-10T04:07:13;100102.25;;;19.27;66.29
45285;BME280;31026;43.780;25.948;2022-12-10T04:09:42;100106.00;;;19.34;66.37
45285;BME280;31026;43.780;25.948;2022-12-10T04:12:10;100111.19;;;19.18;66.74
45285;BME280;31026;43.780;25.948;2022-12-10T04:14:39;100105.44;;;18.39;69.16
45285;BME280;31026;43.780;25.948;2022-12-10T04:17:19;100111.94;;;17.89;70.44
45285;BME280;31026;43.780;25.948;2022-12-10T04:19:50;100096.06;;;17.59;71.59
45285;BME280;31026;43.780;25.948;2022-12-10T04:22:19;100077.50;;;17.38;71.76
45285;BME280;31026;43.780;25.948;2022-12-10T04:24:59;100082.00;;;17.27;72.13
45285;BME280;31026;43.780;25.948;2022-12-10T04:27:46;100085.38;;;17.20;72.00
45285;BME280;31026;43.780;25.948;2022-12-10T04:30:14;100091.16;;;17.15;72.22
45285;BME280;31026;43.780;25.948;2022-12-10T04:32:43;100085.25;;;17.12;72.15
45285;BME280;31026;43.780;25.948;2022-12-10T04:35:14;100086.63;;;17.06;72.13
45285;BME280;31026;43.780;25.948;2022-12-10T04:37:42;100089.56;;;17.03;72.14
45285;BME280;31026;43.780;25.948;2022-12-10T04:40:10;100089.88;;;17.00;72.29
45285;BME280;31026;43.780;25.948;2022-12-10T04:42:39;100107.16;;;16.96;72.32
45285;BME280;31026;43.780;25.948;2022-12-10T04:45:07;100084.25;;;16.93;72.11
45285;BME280;31026;43.780;25.948;2022-12-10T04:47:36;100089.00;;;16.89;72.74
45285;BME280;31026;43.780;25.948;2022-12-10T04:50:05;100108.53;;;16.90;73.05
45285;BME280;31026;43.780;25.948;2022-12-10T04:52:36;100093.06;;;16.84;73.05
45285;BME280;31026;43.780;25.948;2022-12-10T04:55:04;100091.28;;;17.14;72.39
45285;BME280;31026;43.780;25.948;2022-12-10T04:57:33;100075.72;;;18.05;69.67
45285;BME280;31026;43.780;25.948;2022-12-10T05:00:02;100081.47;;;18.65;67.69
45285;BME280;31026;43.780;25.948;2022-12-10T05:02:30;100083.69;;;18.98;66.52
45285;BME280;31026;43.780;25.948;2022-12-10T05:04:59;100078.88;;;19.01;66.58
45285;BME280;31026;43.780;25.948;2022-12-10T05:07:27;100079.34;;;19.15;66.14
45285;BME280;31026;43.780;25.948;2022-12-10T05:09:58;100084.16;;;19.29;65.88
45285;BME280;31026;43.780;25.948;2022-12-10T05:12:26;100084.56;;;18.98;66.57
45285;BME280;31026;43.780;25.948;2022-12-10T05:14:55;100066.44;;;18.37;68.71
45285;BME280;31026;43.780;25.948;2022-12-10T05:17:23;100084.59;;;17.96;69.99
45285;BME280;31026;43.780;25.948;2022-12-10T05:19:51;100087.88;;;17.60;70.85
45285;BME280;31026;43.780;25.948;2022-12-10T05:22:20;100083.41;;;17.41;71.37
45285;BME280;31026;43.780;25.948;2022-12-10T05:25:03;100070.47;;;17.27;71.09
45285;BME280;31026;43.780;25.948;2022-12-10T05:27:32;100094.09;;;17.22;71.94
45285;BME280;31026;43.780;25.948;2022-12-10T05:30:00;100088.63;;;17.14;72.09
45285;BME280;31026;43.780;25.948;2022-12-10T05:32:29;100080.03;;;17.10;71.68
45285;BME280;31026;43.780;25.948;2022-12-10T05:34:57;100097.44;;;17.04;71.89
45285;BME280;31026;43.780;25.948;2022-12-10T05:37:25;100092.94;;;17.05;72.63
45285;BME280;31026;43.780;25.948;2022-12-10T05:39:54;100095.19;;;17.68;71.04
45285;BME280;31026;43.780;25.948;2022-12-10T05:42:25;100090.44;;;18.56;68.79
45285;BME280;31026;43.780;25.948;2022-12-10T05:44:53;100098.03;;;19.42;66.37
45285;BME280;31026;43.780;25.948;2022-12-10T05:47:21;100093.91;;;19.92;65.29
45285;BME280;31026;43.780;25.948;2022-12-10T05:49:50;100099.75;;;20.14;64.74
45285;BME280;31026;43.780;25.948;2022-12-10T05:52:18;100091.09;;;20.28;64.22
45285;BME280;31026;43.780;25.948;2022-12-10T05:54:46;100105.81;;;20.58;63.94
45285;BME280;31026;43.780;25.948;2022-12-10T05:57:15;100088.81;;;20.84;62.99
45285;BME280;31026;43.780;25.948;2022-12-10T05:59:46;100089.31;;;20.79;62.98
45285;BME280;31026;43.780;25.948;2022-12-10T06:02:14;100091.72;;;20.56;63.94
45285;BME280;31026;43.780;25.948;2022-12-10T06:04:42;100089.34;;;20.19;65.32
45285;BME280;31026;43.780;25.948;2022-12-10T06:07:10;100081.69;;;20.24;65.16
45285;BME280;31026;43.780;25.948;2022-12-10T06:09:39;100093.59;;;20.21;65.51
45285;BME280;31026;43.780;25.948;2022-12-10T06:12:07;100086.09;;;20.07;66.21
45285;BME280;31026;43.780;25.948;2022-12-10T06:14:36;100085.66;;;20.12;65.94
45285;BME280;31026;43.780;25.948;2022-12-10T06:17:06;100085.84;;;20.18;65.77
45285;BME280;31026;43.780;25.948;2022-12-10T06:19:35;100079.91;;;20.06;66.06
45285;BME280;31026;43.780;25.948;2022-12-10T06:22:03;100081.31;;;19.93;66.66
45285;BME280;31026;43.780;25.948;2022-12-10T06:24:31;100088.31;;;19.85;66.87
45285;BME280;31026;43.780;25.948;2022-12-10T06:27:00;100093.38;;;19.89;66.80
45285;BME280;31026;43.780;25.948;2022-12-10T06:29:29;100096.09;;;19.97;66.45
45285;BME280;31026;43.780;25.948;2022-12-10T06:31:57;100107.00;;;19.95;66.31
45285;BME280;31026;43.780;25.948;2022-12-10T06:34:28;100092.84;;;19.85;66.83
45285;BME280;31026;43.780;25.948;2022-12-10T06:36:56;100096.69;;;19.82;67.18
45285;BME280;31026;43.780;25.948;2022-12-10T06:39:25;100080.97;;;19.88;66.96
45285;BME280;31026;43.780;25.948;2022-12-10T06:41:53;100083.31;;;19.91;66.80
45285;BME280;31026;43.780;25.948;2022-12-10T06:44:21;100079.81;;;19.90;66.81
45285;BME280;31026;43.780;25.948;2022-12-10T06:46:50;100058.78;;;19.85;67.11
45285;BME280;31026;43.780;25.948;2022-12-10T06:49:18;100061.84;;;19.91;66.92
45285;BME280;31026;43.780;25.948;2022-12-10T06:51:49;100077.31;;;19.97;66.60
45285;BME280;31026;43.780;25.948;2022-12-10T06:54:18;100044.44;;;19.95;66.73
45285;BME280;31026;43.780;25.948;2022-12-10T06:56:46;100052.16;;;19.90;66.78
45285;BME280;31026;43.780;25.948;2022-12-10T06:59:14;100069.22;;;19.89;67.27
45285;BME280;31026;43.780;25.948;2022-12-10T07:01:42;100060.88;;;19.92;67.43
45285;BME280;31026;43.780;25.948;2022-12-10T07:04:11;100056.94;;;20.12;66.90
45285;BME280;31026;43.780;25.948;2022-12-10T07:06:39;100072.00;;;20.05;67.25
45285;BME280;31026;43.780;25.948;2022-12-10T07:09:10;100066.09;;;20.27;66.45
45285;BME280;31026;43.780;25.948;2022-12-10T07:11:38;100068.47;;;20.39;66.07
45285;BME280;31026;43.780;25.948;2022-12-10T07:14:07;100056.44;;;20.51;65.94
45285;BME280;31026;43.780;25.948;2022-12-10T07:16:35;100059.31;;;20.58;65.78
45285;BME280;31026;43.780;25.948;2022-12-10T07:19:03;100076.97;;;20.60;65.97
45285;BME280;31026;43.780;25.948;2022-12-10T07:21:33;100055.13;;;20.55;65.90
45285;BME280;31026;43.780;25.948;2022-12-10T07:24:02;100049.28;;;20.60;65.77
45285;BME280;31026;43.780;25.948;2022-12-10T07:26:34;100041.25;;;20.68;65.83
45285;BME280;31026;43.780;25.948;2022-12-10T07:29:03;100041.91;;;20.70;65.99
45285;BME280;31026;43.780;25.948;2022-12-10T07:31:32;100029.94;;;20.56;66.29
45285;BME280;31026;43.780;25.948;2022-12-10T07:34:01;100041.31;;;20.42;66.99
45285;BME280;31026;43.780;25.948;2022-12-10T07:36:29;100048.06;;;20.12;69.30
45285;BME280;31026;43.780;25.948;2022-12-10T07:38:57;100040.94;;;19.50;71.86
45285;BME280;31026;43.780;25.948;2022-12-10T07:41:26;100035.38;;;19.07;72.86
45285;BME280;31026;43.780;25.948;2022-12-10T07:43:57;100035.72;;;18.86;73.69
45285;BME280;31026;43.780;25.948;2022-12-10T07:46:27;100037.16;;;18.81;74.05
45285;BME280;31026;43.780;25.948;2022-12-10T07:48:55;100032.66;;;18.72;73.82
45285;BME280;31026;43.780;25.948;2022-12-10T07:51:24;100031.22;;;18.59;73.97
45285;BME280;31026;43.780;25.948;2022-12-10T07:53:52;100034.56;;;18.61;74.26
45285;BME280;31026;43.780;25.948;2022-12-10T07:56:21;100029.03;;;18.45;74.35
45285;BME280;31026;43.780;25.948;2022-12-10T07:58:50;100012.44;;;18.41;74.12
45285;BME280;31026;43.780;25.948;2022-12-10T08:01:23;100010.22;;;18.37;74.59
45285;BME280;31026;43.780;25.948;2022-12-10T08:03:52;100031.31;;;18.40;74.67
45285;BME280;31026;43.780;25.948;2022-12-10T08:06:21;100024.03;;;18.32;74.43
45285;BME280;31026;43.780;25.948;2022-12-10T08:08:50;100010.97;;;18.29;74.74
45285;BME280;31026;43.780;25.948;2022-12-10T08:11:19;100021.53;;;18.31;73.91
45285;BME280;31026;43.780;25.948;2022-12-10T08:13:48;100013.31;;;18.32;74.73
45285;BME280;31026;43.780;25.948;2022-12-10T08:16:17;100001.78;;;18.32;74.56
45285;BME280;31026;43.780;25.948;2022-12-10T08:18:50;100011.84;;;18.20;74.62
45285;BME280;31026;43.780;25.948;2022-12-10T08:21:19;100021.03;;;18.17;73.89
45285;BME280;31026;43.780;25.948;2022-12-10T08:23:48;100022.50;;;18.29;73.48
45285;BME280;31026;43.780;25.948;2022-12-10T08:26:17;100015.47;;;18.28;73.63
45285;BME280;31026;43.780;25.948;2022-12-10T08:28:46;99992.00;;;18.22;73.74
45285;BME280;31026;43.780;25.948;2022-12-10T08:31:15;99991.59;;;18.17;74.15
45285;BME280;31026;43.780;25.948;2022-12-10T08:33:44;99994.03;;;18.11;74.15
45285;BME280;31026;43.780;25.948;2022-12-10T08:36:16;99975.28;;;18.11;74.31
45285;BME280;31026;43.780;25.948;2022-12-10T08:38:44;99986.41;;;18.06;74.66
45285;BME280;31026;43.780;25.948;2022-12-10T08:41:14;99985.63;;;18.23;75.00
45285;BME280;31026;43.780;25.948;2022-12-10T08:43:42;99962.75;;;18.11;74.37
45285;BME280;31026;43.780;25.948;2022-12-10T08:46:12;99970.22;;;18.07;74.43
45285;BME280;31026;43.780;25.948;2022-12-10T08:48:40;99964.63;;;18.01;74.39
45285;BME280;31026;43.780;25.948;2022-12-10T08:51:10;99958.88;;;17.96;74.55
45285;BME280;31026;43.780;25.948;2022-12-10T08:53:42;99945.13;;;17.91;74.65
45285;BME280;31026;43.780;25.948;2022-12-10T08:56:10;99933.44;;;17.82;74.75
45285;BME280;31026;43.780;25.948;2022-12-10T08:58:39;99950.06;;;17.85;74.64
45285;BME280;31026;43.780;25.948;2022-12-10T09:01:08;99927.97;;;17.83;74.53
45285;BME280;31026;43.780;25.948;2022-12-10T09:03:36;99936.25;;;17.80;74.57
45285;BME280;31026;43.780;25.948;2022-12-10T09:06:05;99940.63;;;17.81;74.70
45285;BME280;31026;43.780;25.948;2022-12-10T09:08:34;99936.81;;;17.84;74.51
45285;BME280;31026;43.780;25.948;2022-12-10T09:11:09;99936.69;;;17.85;74.26
45285;BME280;31026;43.780;25.948;2022-12-10T09:13:38;99921.63;;;17.84;74.12
45285;BME280;31026;43.780;25.948;2022-12-10T09:16:06;99921.00;;;18.18;72.79
45285;BME280;31026;43.780;25.948;2022-12-10T09:18:35;99902.88;;;19.02;70.39
45285;BME280;31026;43.780;25.948;2022-12-10T09:21:06;99906.47;;;19.37;69.16
45285;BME280;31026;43.780;25.948;2022-12-10T09:23:34;99912.75;;;19.54;68.92
45285;BME280;31026;43.780;25.948;2022-12-10T09:26:04;99906.22;;;19.56;68.78
45285;BME280;31026;43.780;25.948;2022-12-10T09:28:36;99899.13;;;19.73;68.09
45285;BME280;31026;43.780;25.948;2022-12-10T09:31:05;99905.19;;;19.83;67.70
45285;BME280;31026;43.780;25.948;2022-12-10T09:33:34;99895.13;;;19.85;67.77
45285;BME280;31026;43.780;25.948;2022-12-10T09:36:02;99889.50;;;20.05;66.96
45285;BME280;31026;43.780;25.948;2022-12-10T09:38:33;99908.25;;;19.89;67.59
45285;BME280;31026;43.780;25.948;2022-12-10T09:41:02;99891.16;;;19.90;67.44
45285;BME280;31026;43.780;25.948;2022-12-10T09:43:36;99902.25;;;19.34;69.36
45285;BME280;31026;43.780;25.948;2022-12-10T09:46:13;99892.09;;;18.94;70.56
45285;BME280;31026;43.780;25.948;2022-12-10T09:48:48;99892.03;;;18.67;71.11
45285;BME280;31026;43.780;25.948;2022-12-10T09:51:21;99886.41;;;18.53;71.81
45285;BME280;31026;43.780;25.948;2022-12-10T09:53:50;99887.16;;;18.45;72.08
45285;BME280;31026;43.780;25.948;2022-12-10T09:56:24;99888.31;;;18.42;71.89
45285;BME280;31026;43.780;25.948;2022-12-10T09:58:54;99879.34;;;18.34;72.17
45285;BME280;31026;43.780;25.948;2022-12-10T10:01:27;99869.25;;;18.27;72.24
45285;BME280;31026;43.780;25.948;2022-12-10T10:03:56;99881.94;;;18.25;72.48
45285;BME280;31026;43.780;25.948;2022-12-10T10:06:25;99892.97;;;18.22;72.31
45285;BME280;31026;43.780;25.948;2022-12-10T10:08:55;99881.88;;;18.17;72.39
45285;BME280;31026;43.780;25.948;2022-12-10T10:11:24;99882.47;;;18.11;72.66
45285;BME280;31026;43.780;25.948;2022-12-10T10:13:56;99879.72;;;18.03;72.71
45285;BME280;31026;43.780;25.948;2022-12-10T10:16:30;99878.03;;;18.02;73.06
45285;BME280;31026;43.780;25.948;2022-12-10T10:19:00;99876.66;;;17.98;73.07
45285;BME280;31026;43.780;25.948;2022-12-10T10:21:30;99854.19;;;17.91;73.17
45285;BME280;31026;43.780;25.948;2022-12-10T10:24:00;99861.50;;;17.88;73.05
45285;BME280;31026;43.780;25.948;2022-12-10T10:26:29;99850.78;;;17.88;73.22
45285;BME280;31026;43.780;25.948;2022-12-10T10:28:59;99847.81;;;17.92;72.94
45285;BME280;31026;43.780;25.948;2022-12-10T10:31:31;99852.09;;;17.84;73.17
45285;BME280;31026;43.780;25.948;2022-12-10T10:34:01;99861.88;;;17.94;72.74
45285;BME280;31026;43.780;25.948;2022-12-10T10:36:30;99847.75;;;18.55;70.75
45285;BME280;31026;43.780;25.948;2022-12-10T10:39:07;99834.16;;;19.19;67.98
45285;BME280;31026;43.780;25.948;2022-12-10T10:41:37;99808.78;;;19.39;67.48
45285;BME280;31026;43.780;25.948;2022-12-10T10:44:12;99813.19;;;19.48;66.61
45285;BME280;31026;43.780;25.948;2022-12-10T10:46:45;99810.81;;;19.88;66.33
45285;BME280;31026;43.780;25.948;2022-12-10T10:49:19;99784.84;;;20.13;65.87
45285;BME280;31026;43.780;25.948;2022-12-10T10:51:50;99799.59;;;20.09;66.25
45285;BME280;31026;43.780;25.948;2022-12-10T10:54:38;99808.00;;;20.14;66.36
45285;BME280;31026;43.780;25.948;2022-12-10T10:57:10;99806.19;;;20.39;66.09
45285;BME280;31026;43.780;25.948;2022-12-10T10:59:40;99810.84;;;20.29;65.78
45285;BME280;31026;43.780;25.948;2022-12-10T11:02:19;99800.09;;;19.96;67.38
45285;BME280;31026;43.780;25.948;2022-12-10T11:04:48;99784.97;;;19.36;69.38
45285;BME280;31026;43.780;25.948;2022-12-10T11:07:21;99795.09;;;19.08;70.71
45285;BME280;31026;43.780;25.948;2022-12-10T11:09:51;99784.06;;;18.85;71.53
45285;BME280;31026;43.780;25.948;2022-12-10T11:12:28;99792.16;;;18.75;72.53
45285;BME280;31026;43.780;25.948;2022-12-10T11:14:56;99792.00;;;18.77;73.37
45285;BME280;31026;43.780;25.948;2022-12-10T11:17:27;99789.50;;;18.75;73.87
45285;BME280;31026;43.780;25.948;2022-12-10T11:19:57;99787.28;;;18.71;73.07
45285;BME280;31026;43.780;25.948;2022-12-10T11:22:27;99774.59;;;18.73;73.79
45285;BME280;31026;43.780;25.948;2022-12-10T11:24:55;99767.53;;;18.72;74.14
45285;BME280;31026;43.780;25.948;2022-12-10T11:27:28;99759.50;;;18.72;73.64
45285;BME280;31026;43.780;25.948;2022-12-10T11:30:02;99742.75;;;18.69;74.06
45285;BME280;31026;43.780;25.948;2022-12-10T11:35:20;99750.22;;;18.84;73.52
45285;BME280;31026;43.780;25.948;2022-12-10T11:37:55;99756.19;;;18.78;73.64
45285;BME280;31026;43.780;25.948;2022-12-10T11:40:33;99765.00;;;18.70;72.73
45285;BME280;31026;43.780;25.948;2022-12-10T11:43:16;99764.84;;;18.72;72.88
45285;BME280;31026;43.780;25.948;2022-12-10T11:45:51;99769.75;;;18.76;73.09
45285;BME280;31026;43.780;25.948;2022-12-10T11:48:28;99746.88;;;18.82;73.10
45285;BME280;31026;43.780;25.948;2022-12-10T11:51:02;99735.63;;;18.78;73.60
45285;BME280;31026;43.780;25.948;2022-12-10T11:53:38;99738.75;;;18.74;73.55
45285;BME280;31026;43.780;25.948;2022-12-10T11:56:09;99748.34;;;18.76;73.85
45285;BME280;31026;43.780;25.948;2022-12-10T11:58:44;99746.44;;;18.68;73.92
45285;BME280;31026;43.780;25.948;2022-12-10T12:01:17;99745.38;;;18.61;74.03
45285;BME280;31026;43.780;25.948;2022-12-10T12:03:55;99748.69;;;18.55;74.22
45285;BME280;31026;43.780;25.948;2022-12-10T12:06:35;99723.53;;;18.48;74.37
45285;BME280;31026;43.780;25.948;2022-12-10T12:09:12;99744.81;;;18.49;74.47
45285;BME280;31026;43.780;25.948;2022-12-10T12:11:48;99742.97;;;18.50;74.08
45285;BME280;31026;43.780;25.948;2022-12-10T12:14:21;99747.44;;;18.41;74.36
45285;BME280;31026;43.780;25.948;2022-12-10T12:16:54;99757.44;;;18.39;74.66
45285;BME280;31026;43.780;25.948;2022-12-10T12:19:28;99743.53;;;18.36;74.39
45285;BME280;31026;43.780;25.948;2022-12-10T12:22:04;99741.69;;;18.36;74.47
45285;BME280;31026;43.780;25.948;2022-12-10T12:24:35;99749.38;;;18.31;74.69
45285;BME280;31026;43.780;25.948;2022-12-10T12:27:06;99746.53;;;18.33;74.65
45285;BME280;31026;43.780;25.948;2022-12-10T12:29:37;99735.59;;;18.26;74.78
45285;BME280;31026;43.780;25.948;2022-12-10T12:32:10;99720.69;;;18.23;74.80
45285;BME280;31026;43.780;25.948;2022-12-10T12:34:43;99725.91;;;18.25;74.72
45285;BME280;31026;43.780;25.948;2022-12-10T12:37:16;99738.59;;;18.23;75.09
45285;BME280;31026;43.780;25.948;2022-12-10T12:39:46;99713.75;;;18.31;74.51
45285;BME280;31026;43.780;25.948;2022-12-10T12:42:17;99715.78;;;18.37;74.93
45285;BME280;31026;43.780;25.948;2022-12-10T12:44:48;99721.66;;;18.40;74.70
45285;BME280;31026;43.780;25.948;2022-12-10T12:47:28;99719.38;;;18.27;74.74
45285;BME280;31026;43.780;25.948;2022-12-10T12:49:59;99719.03;;;18.22;74.82
45285;BME280;31026;43.780;25.948;2022-12-10T12:52:34;99724.38;;;18.22;74.94
45285;BME280;31026;43.780;25.948;2022-12-10T12:55:06;99708.09;;;18.68;73.52
45285;BME280;31026;43.780;25.948;2022-12-10T12:57:44;99707.56;;;19.41;70.81
45285;BME280;31026;43.780;25.948;2022-12-10T13:00:15;99688.53;;;19.85;69.93
45285;BME280;31026;43.780;25.948;2022-12-10T13:02:58;99697.91;;;20.39;67.97
45285;BME280;31026;43.780;25.948;2022-12-10T13:05:28;99682.22;;;20.83;67.04
45285;BME280;31026;43.780;25.948;2022-12-10T13:10:49;99716.88;;;21.10;66.42